Terminal Aerodrome Forecast
Issued by NWS Jacksonville, FL

Home | Current Version | Previous Version | Text Only | Print | Product List | Glossary On
Versions: 1 2 3 4 5 6 7 8 9 10 11 12 13 14 15 16 17 18 19 20 21 22 23 24 25 26 27 28 29 30 31 32 33 34
000
FTUS42 KJAX 240523
TAFJAX
TAF
KJAX 240523Z 2406/2506 21010KT P6SM VCSH SCT025 BKN040 OVC100
     FM241000 20010KT P6SM VCTS SCT025CB BKN040
     FM241300 22015G25KT 4SM SHRA VCTS OVC020CB
     FM250200 22015G25KT P6SM VCSH OVC025=

USA.gov is the U.S. government's official web portal to all federal, state and local government web resources and services.